Thunderstorms From: 25-05-2018 15:00 Until: 26-05-2018 15:00 warning for: Thunderstorms Level: Yellow info button

Although rather usual in this region, locally or potentially dangerous phenomena are expected. (such as local winds, summer thunderstorms, rising streams or high waves) Be aware and pay attention to the latest weather updates, especially if you carry out activities exposed to weather or close to a stream or shoreline. 


Meteo18 Weather Cam more information Meteo18 Weather Cam


warning for Thunderstorms more information blitzortung!


Rain radar more information rain snow radar


Visit our other weather sites:

Template documentation
and downloads

And another site



Weather Underground History page Text

Daily Summary for January 24, 2016 Units:  Metric    English   Both
« Previous Day
Next Day »
Daily Weekly Monthly Yearly Custom
  High: Low: Average:
Temperature: -17.8 °C -17.6 °C -15.7 °C
Dew Point: -17.8 °C -17.7 °C -16 °C
Humidity: Humidity % 89 % 97 %
Wind Speed: 0 km/h 0 km/h 0 km/h
Wind Gust: 0 km/h - -
Wind:- - ENE
Pressure: 0 hPa 34865.6 hPa -
Precipitation: 7.62 mm    
Historical Graphs
 
 
Tabular Data for January 24, 2016
Time Temperature Dew Point Pressure Wind Wind Speed Wind Gust Humidity Rainfall Rate (Hourly)
-17.8 °C -17.8 °C 0 hPa Calm     Humidity % 0 mm
00:02 -17.3 °C -17.4 °C 35014.6 hPa Calm     98 % 0 mm
00:12 -17.4 °C -17.6 °C 35014.6 hPa Calm     98 % 0 mm
00:22 -17.5 °C -17.7 °C 35014.6 hPa Calm     98 % 0 mm
00:27 -17.4 °C -17.6 °C 35014.6 hPa Calm     98 % 0 mm
00:32 -17.3 °C -17.5 °C 35014.6 hPa Calm     98 % 0 mm
00:37 -17.3 °C -17.5 °C 35014.6 hPa Calm     98 % 0 mm
00:42 -17.4 °C -17.6 °C 35014.6 hPa Calm     98 % 0 mm
00:47 -17.6 °C -17.7 °C 35001.1 hPa Calm     98 % 0 mm
00:52 -17.6 °C -17.7 °C 35014.6 hPa Calm     98 % 0 mm
00:57 -17.3 °C -17.4 °C 35014.6 hPa Calm     98 % 0 mm
01:02 -17.3 °C -17.4 °C 35001.1 hPa Calm     98 % 0 mm
01:07 -17.2 °C -17.4 °C 35001.1 hPa Calm     98 % 0 mm
01:12 -17.2 °C -17.4 °C 35001.1 hPa Calm     98 % 0 mm
01:17 -17.2 °C -17.3 °C 35001.1 hPa Calm     98 % 0 mm
01:22 -17.1 °C -17.3 °C 35001.1 hPa Calm     98 % 0 mm
01:27 -17.2 °C -17.3 °C 35001.1 hPa Calm     98 % 0 mm
01:32 -17.1 °C -17.2 °C 35001.1 hPa Calm     98 % 0 mm
01:37 -17.1 °C -17.2 °C 34990.9 hPa Calm     98 % 0 mm
01:42 -17.1 °C -17.3 °C 35001.1 hPa Calm     98 % 0 mm
01:52 -17.2 °C -17.3 °C 35001.1 hPa Calm     98 % 0 mm
01:57 -17.2 °C -17.3 °C 35001.1 hPa Calm     98 % 0 mm
02:02 -17.2 °C -17.4 °C 35001.1 hPa Calm     98 % 0 mm
02:07 -17.2 °C -17.3 °C 35001.1 hPa Calm     98 % 0 mm
02:12 -17.2 °C -17.3 °C 35001.1 hPa Calm     98 % 0 mm
02:17 -17.2 °C -17.3 °C 35001.1 hPa Calm     98 % 0 mm
02:22 -17.1 °C -17.3 °C 35001.1 hPa Calm     98 % 0 mm
02:32 -17.1 °C -17.3 °C 35001.1 hPa Calm     98 % 0 mm
02:37 -17.2 °C -17.4 °C 35001.1 hPa Calm   2.6 km/h 98 % 0 mm
02:42 -17.3 °C -17.4 °C 35001.1 hPa Calm     98 % 0 mm
02:47 -17.3 °C -17.4 °C 35001.1 hPa Calm     98 % 0 mm
02:52 -17.1 °C -17.3 °C 35001.1 hPa Calm     98 % 0 mm
02:57 -17.1 °C -17.2 °C 35001.1 hPa Calm     98 % 0 mm
03:02 -17.1 °C -17.2 °C 35001.1 hPa Calm     98 % 0 mm
03:07 -17.1 °C -17.2 °C 35001.1 hPa Calm     98 % 0 mm
03:12 -17.1 °C -17.3 °C 35001.1 hPa Calm     98 % 0 mm
03:17 -17.1 °C -17.2 °C 34990.9 hPa Calm     98 % 0 mm
03:22 -17.1 °C -17.2 °C 34990.9 hPa Calm     98 % 0 mm
03:27 -17 °C -17.2 °C 34990.9 hPa Calm     98 % 0 mm
03:32 -17 °C -17.2 °C 34990.9 hPa Calm     98 % 0 mm
03:42 -17.1 °C -17.2 °C 34990.9 hPa Calm     98 % 0 mm
03:47 -17.1 °C -17.2 °C 34990.9 hPa Calm     98 % 0 mm
03:52 -17.2 °C -17.3 °C 34990.9 hPa Calm     98 % 0 mm
03:57 -17.3 °C -17.4 °C 34990.9 hPa Calm     98 % 0 mm
04:12 -17.4 °C -17.6 °C 34990.9 hPa Calm     98 % 0 mm
04:17 -17.3 °C -17.4 °C 34990.9 hPa Calm     98 % 0 mm
04:22 -17.3 °C -17.4 °C 34990.9 hPa Calm     98 % 0 mm
04:27 -17.2 °C -17.3 °C 34990.9 hPa Calm     98 % 0 mm
04:32 -17.2 °C -17.3 °C 34990.9 hPa Calm     98 % 0 mm
04:37 -17.2 °C -17.3 °C 34990.9 hPa Calm     98 % 0 mm
04:42 -17.2 °C -17.3 °C 34990.9 hPa Calm     98 % 0 mm
04:47 -17.3 °C -17.4 °C 35001.1 hPa Calm     98 % 0 mm
04:52 -17.3 °C -17.4 °C 35001.1 hPa Calm     98 % 0 mm
05:02 -17.2 °C -17.3 °C 35001.1 hPa Calm     98 % 0 mm
05:07 -17.1 °C -17.2 °C 35001.1 hPa Calm   2.6 km/h 98 % 0 mm
05:12 -17 °C -17.2 °C 34990.9 hPa Calm   2.6 km/h 98 % 0 mm
05:22 -17 °C -17.2 °C 35001.1 hPa Calm   2.6 km/h 98 % 0 mm
05:32 -17 °C -17.2 °C 35001.1 hPa Calm   2.6 km/h 98 % 7.62 mm
05:37 -17 °C -17.1 °C 35001.1 hPa Calm   2.6 km/h 99 % 7.62 mm
05:42 -16.9 °C -16.9 °C 35001.1 hPa Calm   2.6 km/h 99 % 7.62 mm
05:47 -16.9 °C -16.9 °C 35014.6 hPa Calm   2.6 km/h 99 % 7.62 mm
05:52 -16.9 °C -17.1 °C 35001.1 hPa Calm   2.6 km/h 98 % 7.62 mm
06:02 -17 °C -17.2 °C 35001.1 hPa Calm   2.6 km/h 98 % 7.62 mm
06:12 -17.1 °C -17.2 °C 35001.1 hPa Calm   2.6 km/h 98 % 7.62 mm
06:17 -17 °C -17.2 °C 35001.1 hPa Calm   2.6 km/h 98 % 7.62 mm
06:22 -17 °C -17.2 °C 35014.6 hPa Calm   2.6 km/h 98 % 7.62 mm
06:32 -16.9 °C -17.1 °C 35001.1 hPa Calm     98 % 0 mm
06:42 -16.9 °C -17.1 °C 35001.1 hPa Calm   2.6 km/h 98 % 0 mm
06:47 -16.9 °C -17.1 °C 35001.1 hPa Calm   2.6 km/h 98 % 0 mm
06:52 -16.9 °C -17.1 °C 35001.1 hPa Calm   2.6 km/h 98 % 0 mm
06:57 -16.9 °C -17.1 °C 35001.1 hPa Calm   2.6 km/h 98 % 0 mm
07:02 -16.9 °C -17.1 °C 35001.1 hPa Calm   2.6 km/h 98 % 0 mm
07:12 -16.9 °C -17.1 °C 35001.1 hPa Calm     98 % 0 mm
07:17 -16.9 °C -17.1 °C 35001.1 hPa Calm     98 % 0 mm
07:22 -16.9 °C -17.1 °C 35001.1 hPa Calm     98 % 0 mm
07:32 -16.8 °C -17 °C 35001.1 hPa Calm     98 % 0 mm
07:42 -16.8 °C -17 °C 35001.1 hPa Calm   2.6 km/h 98 % 0 mm
07:52 -16.8 °C -16.9 °C 35001.1 hPa Calm   2.6 km/h 98 % 0 mm
07:57 -16.8 °C -16.9 °C 35001.1 hPa Calm   2.6 km/h 98 % 0 mm
08:02 -16.8 °C -17 °C 35014.6 hPa Calm   2.6 km/h 98 % 0 mm
08:12 -16.8 °C -16.9 °C 35014.6 hPa Calm     98 % 0 mm
08:32 -16.7 °C -16.9 °C 35014.6 hPa Calm     98 % 0 mm
08:42 -16.7 °C -16.9 °C 35014.6 hPa Calm     98 % 0 mm
08:52 -16.7 °C -16.9 °C 35014.6 hPa Calm     98 % 0 mm
09:02 -16.6 °C -16.8 °C 35001.1 hPa Calm     98 % 0 mm
09:22 -16.5 °C -16.7 °C 35014.6 hPa Calm     98 % 0 mm
09:32 -16.4 °C -16.4 °C 35001.1 hPa Calm     99 % 0 mm
09:42 -16.3 °C -16.3 °C 35001.1 hPa Calm     99 % 0 mm
09:47 -16.3 °C -16.3 °C 35014.6 hPa Calm   2.6 km/h 99 % 0 mm
09:57 -16.2 °C -16.2 °C 35001.1 hPa Calm   2.6 km/h 99 % 0 mm
10:02 -16.1 °C -16.1 °C 35001.1 hPa Calm   2.6 km/h 99 % 0 mm
10:12 -16 °C -16.1 °C 35014.6 hPa Calm     99 % 0 mm
10:22 -15.9 °C -16 °C 35014.6 hPa Calm     99 % 0 mm
10:27 -15.9 °C -16 °C 35014.6 hPa Calm     99 % 0 mm
10:32 -15.9 °C -16.1 °C 35001.1 hPa Calm     98 % 0 mm
10:37 -15.9 °C -15.9 °C 35014.6 hPa Calm   2.6 km/h 99 % 0 mm
10:42 -15.9 °C -16.1 °C 35014.6 hPa Calm   2.6 km/h 98 % 0 mm
10:52 -15.8 °C -16 °C 35014.6 hPa Calm   2.6 km/h 98 % 0 mm
10:57 -15.8 °C -15.9 °C 35014.6 hPa Calm   2.6 km/h 98 % 0 mm
11:02 -15.7 °C -15.9 °C 35014.6 hPa Calm   2.6 km/h 98 % 0 mm
11:07 -15.7 °C -15.8 °C 35014.6 hPa Calm   2.6 km/h 98 % 0 mm
11:12 -15.6 °C -15.7 °C 35014.6 hPa Calm     98 % 0 mm
11:17 -15.4 °C -15.6 °C 35014.6 hPa Calm     98 % 0 mm
11:22 -15.4 °C -15.5 °C 35014.6 hPa Calm     99 % 0 mm
11:27 -15.4 °C -15.6 °C 35014.6 hPa Calm     98 % 0 mm
11:32 -15.4 °C -15.6 °C 35024.8 hPa Calm     98 % 0 mm
11:37 -15.4 °C -15.6 °C 35024.8 hPa Calm   2.6 km/h 98 % 0 mm
11:42 -15.3 °C -15.5 °C 35024.8 hPa Calm   2.6 km/h 98 % 0 mm
11:47 -15.3 °C -15.5 °C 35024.8 hPa Calm   2.6 km/h 98 % 0 mm
11:52 -15.3 °C -15.5 °C 35024.8 hPa Calm   2.6 km/h 98 % 0 mm
11:57 -15.3 °C -15.5 °C 35014.6 hPa Calm   2.6 km/h 98 % 0 mm
12:02 -15.3 °C -15.5 °C 35024.8 hPa Calm   2.6 km/h 98 % 0 mm
12:07 -15.2 °C -15.4 °C 35014.6 hPa Calm   2.6 km/h 98 % 0 mm
12:17 -15.2 °C -15.4 °C 35014.6 hPa Calm   2.6 km/h 98 % 0 mm
12:22 -15.2 °C -15.3 °C 35014.6 hPa Calm   2.6 km/h 98 % 0 mm
12:27 -15.1 °C -15.3 °C 35014.6 hPa Calm   2.6 km/h 98 % 0 mm
12:32 -15.1 °C -15.3 °C 35014.6 hPa Calm     98 % 0 mm
12:42 -14.9 °C -15.1 °C 35014.6 hPa Calm   2.6 km/h 98 % 0 mm
12:47 -14.9 °C -15.1 °C 35001.1 hPa Calm     98 % 0 mm
12:52 -14.9 °C -15.1 °C 35001.1 hPa Calm   2.6 km/h 98 % 0 mm
12:57 -14.9 °C -15.1 °C 35001.1 hPa Calm   2.6 km/h 98 % 0 mm
13:02 -14.9 °C -15.1 °C 35001.1 hPa Calm   2.6 km/h 98 % 0 mm
13:12 -14.8 °C -15 °C 35001.1 hPa Calm     98 % 0 mm
13:17 -14.8 °C -14.9 °C 35001.1 hPa Calm     98 % 0 mm
13:22 -14.7 °C -14.9 °C 35001.1 hPa Calm     98 % 0 mm
13:32 -14.7 °C -14.8 °C 34990.9 hPa Calm     98 % 0 mm
13:37 -14.6 °C -14.8 °C 34990.9 hPa Calm   2.6 km/h 98 % 0 mm
13:47 -14.6 °C -14.7 °C 34980.8 hPa Calm     98 % 0 mm
13:52 -14.4 °C -14.6 °C 34980.8 hPa Calm     98 % 0 mm
13:57 -14.4 °C -14.6 °C 34980.8 hPa Calm     98 % 0 mm
14:02 -14.3 °C -14.5 °C 34980.8 hPa Calm     98 % 0 mm
14:12 -14.2 °C -14.4 °C 34967.2 hPa Calm     97 % 0 mm
14:17 -14.2 °C -14.3 °C 34967.2 hPa Calm     98 % 0 mm
14:22 -14.1 °C -14.2 °C 34967.2 hPa Calm     98 % 0 mm
14:27 -14 °C -14.2 °C 34967.2 hPa Calm     97 % 0 mm
14:32 -13.9 °C -14.1 °C 34967.2 hPa Calm     97 % 0 mm
14:37 -13.8 °C -14.1 °C 34967.2 hPa Calm   2.6 km/h 97 % 0 mm
14:42 -13.7 °C -14.1 °C 34967.2 hPa ENE 2.6 km/h 7.7 km/h 96 % 0 mm
14:47 -13.7 °C -14.1 °C 34967.2 hPa Calm   7.7 km/h 95 % 0 mm
14:52 -13.6 °C -13.9 °C 34967.2 hPa NE 5.1 km/h 7.7 km/h 95 % 0 mm
14:57 -13.6 °C -14.1 °C 34957.1 hPa Calm   7.7 km/h 94 % 0 mm
15:02 -13.6 °C -14.2 °C 34957.1 hPa Calm   7.7 km/h 93 % 0 mm
15:07 -13.5 °C -14 °C 34957.1 hPa Calm   7.7 km/h 94 % 0 mm
15:12 -13.4 °C -14.1 °C 34957.1 hPa Calm   5.1 km/h 93 % 0 mm
15:17 -13.4 °C -14.1 °C 34957.1 hPa Calm   2.6 km/h 92 % 0 mm
15:22 -13.4 °C -14.1 °C 34957.1 hPa Calm   5.1 km/h 92 % 0 mm
15:37 -13.2 °C -14.1 °C 34946.9 hPa Calm     90 % 0 mm
15:42 -13.1 °C -13.9 °C 34946.9 hPa Calm     90 % 0 mm
15:47 -13 °C -13.8 °C 34946.9 hPa Calm     90 % 0 mm
15:52 -13 °C -13.8 °C 34946.9 hPa Calm     90 % 0 mm
15:57 -12.9 °C -13.9 °C 34946.9 hPa Calm     89 % 0 mm
16:02 -13 °C -13.8 °C 34946.9 hPa Calm     90 % 0 mm
16:12 -13 °C -13.8 °C 34946.9 hPa Calm   2.6 km/h 91 % 0 mm
16:17 -12.9 °C -13.7 °C 34946.9 hPa Calm     91 % 0 mm
16:22 -12.9 °C -13.7 °C 34946.9 hPa Calm     91 % 0 mm
16:32 -12.9 °C -13.7 °C 34933.4 hPa Calm     91 % 0 mm
16:37 -12.9 °C -13.7 °C 34933.4 hPa Calm     91 % 0 mm
16:42 -12.9 °C -13.7 °C 34933.4 hPa Calm     91 % 0 mm
16:47 -13 °C -13.8 °C 34933.4 hPa Calm     91 % 0 mm
16:52 -13.1 °C -13.9 °C 34933.4 hPa Calm     91 % 0 mm
16:57 -13.2 °C -14 °C 34933.4 hPa Calm     91 % 0 mm
17:02 -13.3 °C -14 °C 34933.4 hPa Calm     92 % 0 mm
17:07 -13.3 °C -13.8 °C 34933.4 hPa Calm     94 % 0 mm
17:17 -13.5 °C -14 °C 34933.4 hPa Calm     94 % 0 mm
17:22 -13.6 °C -14.1 °C 34933.4 hPa Calm     94 % 0 mm
17:32 -13.8 °C -14.3 °C 34933.4 hPa Calm     94 % 0 mm
17:37 -13.8 °C -14.3 °C 34946.9 hPa Calm     94 % 0 mm
17:42 -14 °C -14.5 °C 34946.9 hPa Calm     94 % 0 mm
17:47 -14.1 °C -14.6 °C 34946.9 hPa Calm     94 % 0 mm
17:57 -14.2 °C -14.6 °C 34946.9 hPa Calm   2.6 km/h 95 % 0 mm
18:02 -14.3 °C -14.7 °C 34946.9 hPa Calm   2.6 km/h 95 % 0 mm
18:12 -14.4 °C -14.8 °C 34946.9 hPa Calm     96 % 0 mm
18:17 -14.3 °C -14.5 °C 34946.9 hPa Calm     97 % 0 mm
18:22 -14.4 °C -14.7 °C 34946.9 hPa Calm     96 % 0 mm
18:32 -14.6 °C -15 °C 34946.9 hPa Calm     95 % 0 mm
18:37 -14.7 °C -15.1 °C 34946.9 hPa Calm     96 % 0 mm
18:42 -14.8 °C -15.1 °C 34946.9 hPa Calm     96 % 0 mm
18:47 -14.8 °C -15.1 °C 34946.9 hPa Calm     96 % 0 mm
18:52 -14.8 °C -15.2 °C 34946.9 hPa Calm     96 % 0 mm
18:57 -14.9 °C -15.2 °C 34946.9 hPa Calm     96 % 0 mm
19:02 -14.9 °C -15.1 °C 34946.9 hPa Calm     97 % 0 mm
19:12 -14.8 °C -15.1 °C 34946.9 hPa Calm     97 % 0 mm
19:17 -14.9 °C -15.1 °C 34946.9 hPa Calm     97 % 0 mm
19:22 -14.9 °C -15.2 °C 34946.9 hPa Calm     97 % 0 mm
19:27 -15.1 °C -15.3 °C 34946.9 hPa Calm     97 % 0 mm
19:32 -15 °C -15.2 °C 34946.9 hPa Calm     97 % 0 mm
19:37 -15.1 °C -15.3 °C 34946.9 hPa Calm     97 % 0 mm
19:42 -15.1 °C -15.3 °C 34946.9 hPa Calm     97 % 0 mm
19:52 -15.2 °C -15.4 °C 34946.9 hPa Calm     97 % 0 mm
19:57 -15.3 °C -15.5 °C 34933.4 hPa Calm     97 % 0 mm
20:02 -15.3 °C -15.6 °C 34933.4 hPa Calm     97 % 0 mm
20:07 -15.4 °C -15.6 °C 34933.4 hPa Calm     97 % 0 mm
20:12 -15.5 °C -15.7 °C 34933.4 hPa Calm     97 % 0 mm
20:17 -15.6 °C -15.8 °C 34933.4 hPa Calm     97 % 0 mm
20:22 -15.7 °C -15.9 °C 34923.2 hPa Calm     97 % 0 mm
20:27 -15.7 °C -15.9 °C 34923.2 hPa Calm     97 % 0 mm
20:32 -15.7 °C -15.9 °C 34923.2 hPa Calm     97 % 0 mm
20:37 -15.7 °C -15.8 °C 34923.2 hPa Calm     98 % 0 mm
20:42 -15.7 °C -15.8 °C 34923.2 hPa Calm     98 % 0 mm
20:47 -15.7 °C -15.8 °C 34923.2 hPa Calm     98 % 0 mm
20:52 -15.6 °C -15.8 °C 34923.2 hPa Calm     98 % 0 mm
20:57 -15.6 °C -15.8 °C 34923.2 hPa Calm     98 % 0 mm
21:02 -15.7 °C -15.8 °C 34923.2 hPa Calm     98 % 0 mm
21:07 -15.8 °C -16 °C 34909.7 hPa Calm     97 % 0 mm
21:12 -15.9 °C -16.1 °C 34909.7 hPa Calm     97 % 0 mm
21:17 -15.9 °C -16.1 °C 34909.7 hPa Calm     98 % 0 mm
21:22 -15.8 °C -16 °C 34909.7 hPa Calm     98 % 0 mm
21:27 -15.8 °C -15.9 °C 34899.5 hPa Calm     98 % 0 mm
21:32 -15.8 °C -15.9 °C 34899.5 hPa Calm     98 % 0 mm
21:37 -15.8 °C -15.9 °C 34899.5 hPa Calm     98 % 0 mm
21:42 -15.7 °C -15.9 °C 34899.5 hPa Calm     98 % 0 mm
21:47 -15.7 °C -15.9 °C 34899.5 hPa Calm     98 % 0 mm
21:52 -15.8 °C -15.9 °C 34899.5 hPa Calm     98 % 0 mm
21:57 -15.8 °C -16 °C 34889.3 hPa Calm     98 % 0 mm
22:02 -15.9 °C -16.1 °C 34889.3 hPa Calm     98 % 0 mm
22:07 -16 °C -16.2 °C 34889.3 hPa Calm     98 % 0 mm
22:12 -16.1 °C -16.2 °C 34889.3 hPa Calm     98 % 0 mm
22:17 -15.9 °C -16.1 °C 34889.3 hPa Calm   2.6 km/h 98 % 0 mm
22:22 -16.1 °C -16.3 °C 34889.3 hPa Calm   2.6 km/h 98 % 0 mm
22:32 -16.2 °C -16.4 °C 34875.8 hPa Calm   2.6 km/h 98 % 0 mm
22:37 -16.2 °C -16.4 °C 34875.8 hPa Calm     98 % 0 mm
22:42 -16.2 °C -16.3 °C 34875.8 hPa Calm     98 % 0 mm
22:52 -16.3 °C -16.5 °C 34875.8 hPa Calm     98 % 0 mm
22:57 -16.4 °C -16.6 °C 34875.8 hPa Calm     98 % 0 mm
23:02 -16.3 °C -16.5 °C 34875.8 hPa Calm     98 % 0 mm
23:07 -16.3 °C -16.5 °C 34875.8 hPa Calm     98 % 0 mm
23:12 -16.4 °C -16.6 °C 34875.8 hPa Calm     98 % 0 mm
23:17 -16.4 °C -16.6 °C 34875.8 hPa Calm     98 % 0 mm
23:22 -16.2 °C -16.4 °C 34875.8 hPa Calm     98 % 0 mm
23:27 -16.2 °C -16.4 °C 34865.6 hPa Calm     98 % 0 mm
23:32 -16.3 °C -16.4 °C 34865.6 hPa Calm     98 % 0 mm
23:37 -16.3 °C -16.5 °C 34865.6 hPa Calm     98 % 0 mm
23:42 -16.3 °C -16.5 °C 34865.6 hPa Calm     98 % 0 mm
23:47 -16.2 °C -16.4 °C 34865.6 hPa Calm     98 % 0 mm
23:52 -16.2 °C -16.3 °C 34865.6 hPa Calm     98 % 0 mm
23:57 -16.3 °C -16.4 °C 34865.6 hPa Calm     98 % 0 mm
Meteo18
Compliments of Weather Underground - 4 mb

Script developed by  Jim McMurry - jmcmurry@mwt.net Adapted for the template by  Wim van der Kuil - Leuven-Template.eu

You find our weather info also at:

European Weather Network

Weather Underground

Equipment we use:

Weather-station
Davis Vue

Weather-program
Meteobridge

Weather-server
Raspberry PI 2 B+

Provider
1 and 1

Davis Vue

Meteobridge

Raspberry PI 2 B+

1 and 1